createdAt,value
2017-12-16T00:01:07.494Z,2.36
2017-12-16T00:02:07.527Z,2.28
2017-12-16T00:04:00.511Z,2.31
2017-12-16T00:05:00.558Z,2.28
2017-12-16T00:06:53.550Z,2.29
2017-12-16T00:07:53.585Z,2.28
2017-12-16T00:09:46.584Z,2.32
2017-12-16T00:10:46.615Z,2.31
2017-12-16T00:12:39.590Z,2.29
2017-12-16T00:13:39.644Z,2.31
2017-12-16T00:15:32.637Z,2.32
2017-12-16T00:16:32.671Z,2.36
2017-12-16T00:18:25.647Z,2.31
2017-12-16T00:19:25.702Z,2.38
2017-12-16T00:21:18.699Z,2.29
2017-12-16T00:22:18.734Z,2.13
2017-12-16T00:24:11.709Z,2.07
2017-12-16T00:25:11.763Z,2.14
2017-12-16T00:27:04.754Z,2.08
2017-12-16T00:28:04.791Z,2.04
2017-12-16T00:29:57.790Z,2.13
2017-12-16T00:30:57.818Z,2.17
2017-12-16T00:32:50.793Z,2.17
2017-12-16T00:33:50.859Z,2.20
2017-12-16T00:35:43.841Z,2.26
2017-12-16T00:36:43.875Z,2.29
2017-12-16T00:38:36.862Z,2.33
2017-12-16T00:39:36.905Z,2.42
2017-12-16T00:41:29.900Z,2.56
2017-12-16T00:42:29.934Z,2.50
2017-12-16T00:44:22.912Z,2.53
2017-12-16T00:45:22.962Z,2.64
2017-12-16T00:47:15.955Z,2.62
2017-12-16T00:48:16.006Z,2.64
2017-12-16T00:50:08.984Z,2.64
2017-12-16T00:51:09.019Z,2.61
2017-12-16T00:53:02.004Z,2.68
2017-12-16T00:54:02.050Z,2.57
2017-12-16T00:55:55.046Z,2.67
2017-12-16T00:56:55.080Z,2.54
2017-12-16T00:58:48.060Z,2.67
2017-12-16T00:59:48.108Z,2.62
2017-12-16T01:01:41.108Z,2.67
2017-12-16T01:02:41.141Z,2.68
2017-12-16T01:04:34.116Z,2.56
2017-12-16T01:05:34.173Z,2.67
2017-12-16T01:07:27.172Z,2.67
2017-12-16T01:08:27.202Z,2.69
2017-12-16T01:10:20.199Z,2.69
2017-12-16T01:11:20.229Z,2.69
2017-12-16T01:13:13.208Z,2.80
2017-12-16T01:14:13.256Z,2.67
2017-12-16T01:16:06.260Z,2.72
2017-12-16T01:17:06.288Z,2.68
2017-12-16T01:18:59.260Z,2.67
2017-12-16T01:19:59.314Z,2.67
2017-12-16T01:21:52.309Z,2.64
2017-12-16T01:22:52.344Z,2.65
2017-12-16T01:24:45.323Z,2.69
2017-12-16T01:25:45.370Z,2.67
2017-12-16T01:27:38.365Z,2.69
2017-12-16T01:28:38.397Z,2.69
2017-12-16T01:30:31.393Z,2.74
2017-12-16T01:31:31.427Z,2.75
2017-12-16T01:33:24.409Z,2.82
2017-12-16T01:34:24.457Z,2.80
2017-12-16T01:36:17.451Z,2.69
2017-12-16T01:37:17.484Z,2.80
2017-12-16T01:39:10.459Z,2.74
2017-12-16T01:40:10.513Z,2.74
2017-12-16T01:42:03.519Z,2.68
2017-12-16T01:43:03.551Z,2.64
2017-12-16T01:44:56.526Z,2.67
2017-12-16T01:45:56.579Z,2.65
2017-12-16T01:47:49.571Z,2.54
2017-12-16T01:48:49.605Z,2.67
2017-12-16T01:50:42.648Z,2.61
2017-12-16T01:51:42.635Z,2.51
2017-12-16T01:53:35.620Z,2.51
2017-12-16T01:54:35.664Z,2.64
2017-12-16T01:56:28.658Z,2.54
2017-12-16T01:57:28.696Z,2.64
2017-12-16T01:59:21.696Z,2.60
2017-12-16T02:00:21.744Z,2.57
2017-12-16T02:02:14.716Z,2.62
2017-12-16T02:03:14.750Z,2.50
2017-12-16T02:05:07.733Z,2.56
2017-12-16T02:06:07.779Z,2.67
2017-12-16T02:08:00.787Z,2.77
2017-12-16T02:09:00.810Z,2.69
2017-12-16T02:10:53.803Z,2.68
2017-12-16T02:11:53.838Z,2.62
2017-12-16T02:13:46.822Z,2.75
2017-12-16T02:14:46.876Z,2.83
2017-12-16T02:16:39.882Z,2.86
2017-12-16T02:17:39.903Z,2.85
2017-12-16T02:19:32.887Z,2.86
2017-12-16T02:20:32.933Z,2.93
2017-12-16T02:22:25.929Z,2.89
2017-12-16T02:23:25.963Z,2.95
2017-12-16T02:25:19.451Z,2.92
2017-12-16T02:26:19.502Z,2.93
2017-12-16T02:28:12.496Z,2.95
2017-12-16T02:29:12.529Z,2.89
2017-12-16T02:31:05.529Z,2.92
2017-12-16T02:32:05.559Z,2.93
2017-12-16T02:33:58.533Z,2.95
2017-12-16T02:34:58.589Z,2.92
2017-12-16T02:36:51.595Z,3.00
2017-12-16T02:37:51.621Z,3.03
2017-12-16T02:39:44.602Z,3.03
2017-12-16T02:40:44.657Z,3.01
2017-12-16T02:42:37.651Z,3.07
2017-12-16T02:43:37.688Z,3.04
2017-12-16T02:45:30.667Z,3.05
2017-12-16T02:46:30.716Z,3.13
2017-12-16T02:48:23.716Z,3.08
2017-12-16T02:49:23.749Z,3.13
2017-12-16T02:51:16.746Z,3.21
2017-12-16T02:52:16.779Z,3.07
2017-12-16T02:54:09.760Z,3.22
2017-12-16T02:55:09.807Z,3.18
2017-12-16T02:57:02.810Z,3.25
2017-12-16T02:58:02.838Z,3.14
2017-12-16T02:59:55.811Z,3.25
2017-12-16T03:00:55.866Z,3.18
2017-12-16T03:02:48.865Z,3.23
2017-12-16T03:03:48.897Z,3.31
2017-12-16T03:05:41.883Z,3.31
2017-12-16T03:06:41.927Z,3.26
2017-12-16T03:08:34.926Z,3.36
2017-12-16T03:09:34.963Z,3.32
2017-12-16T03:11:27.957Z,3.26
2017-12-16T03:12:27.990Z,3.34
2017-12-16T03:14:20.966Z,3.34
2017-12-16T03:15:21.020Z,3.40
2017-12-16T03:17:14.016Z,3.34
2017-12-16T03:18:14.047Z,3.36
2017-12-16T03:20:07.026Z,3.45
2017-12-16T03:21:07.078Z,3.37
2017-12-16T03:23:00.074Z,3.44
2017-12-16T03:24:00.108Z,3.25
2017-12-16T03:25:53.599Z,3.40
2017-12-16T03:26:53.650Z,3.37
2017-12-16T03:28:46.639Z,3.31
2017-12-16T03:29:46.673Z,3.32
2017-12-16T03:31:39.671Z,3.36
2017-12-16T03:32:39.709Z,3.32
2017-12-16T03:34:32.678Z,3.25
2017-12-16T03:35:32.734Z,3.31
2017-12-16T03:37:25.728Z,3.44
2017-12-16T03:38:25.763Z,3.40
2017-12-16T03:40:18.747Z,3.34
2017-12-16T03:41:18.800Z,3.36
2017-12-16T03:43:11.796Z,3.32
2017-12-16T03:44:11.832Z,3.28
2017-12-16T03:46:04.827Z,3.42
2017-12-16T03:47:04.861Z,3.42
2017-12-16T03:48:57.858Z,3.47
2017-12-16T03:49:57.891Z,3.47
2017-12-16T03:51:50.889Z,3.41
2017-12-16T03:52:50.922Z,3.42
2017-12-16T03:54:43.901Z,3.42
2017-12-16T03:55:43.953Z,3.41
2017-12-16T03:57:36.945Z,3.41
2017-12-16T03:58:36.979Z,3.48
2017-12-16T04:00:29.962Z,3.53
2017-12-16T04:01:30.008Z,3.44
2017-12-16T04:03:23.004Z,3.53
2017-12-16T04:04:23.045Z,3.50
2017-12-16T04:06:16.014Z,3.55
2017-12-16T04:07:16.069Z,3.48
2017-12-16T04:09:09.065Z,3.53
2017-12-16T04:10:09.098Z,3.53
2017-12-16T04:12:02.097Z,3.45
2017-12-16T04:13:02.133Z,3.48
2017-12-16T04:14:55.108Z,3.60
2017-12-16T04:15:55.160Z,3.56
2017-12-16T04:17:48.156Z,3.48
2017-12-16T04:18:48.192Z,3.55
2017-12-16T04:20:41.166Z,3.60
2017-12-16T04:21:41.220Z,3.58
2017-12-16T04:23:34.220Z,3.58
2017-12-16T04:24:34.251Z,3.42
2017-12-16T04:26:27.752Z,3.48
2017-12-16T04:27:27.788Z,3.55
2017-12-16T04:29:20.781Z,3.55
2017-12-16T04:30:20.828Z,3.51
2017-12-16T04:32:13.830Z,3.42
2017-12-16T04:33:13.849Z,3.58
2017-12-16T04:35:06.835Z,3.48
2017-12-16T04:36:06.888Z,3.53
2017-12-16T04:37:59.879Z,3.48
2017-12-16T04:38:59.918Z,3.41
2017-12-16T04:40:52.889Z,3.60
2017-12-16T04:41:52.943Z,3.56
2017-12-16T04:43:45.938Z,3.58
2017-12-16T04:44:45.976Z,3.60
2017-12-16T04:46:38.956Z,3.58
2017-12-16T04:47:39.004Z,3.58
2017-12-16T04:49:32.019Z,3.60
2017-12-16T04:50:32.033Z,3.58
2017-12-16T04:52:25.030Z,3.50
2017-12-16T04:53:25.063Z,3.47
2017-12-16T04:55:18.044Z,3.51
2017-12-16T04:56:18.091Z,3.42
2017-12-16T04:58:11.095Z,3.40
2017-12-16T04:59:11.120Z,3.37
2017-12-16T05:01:04.104Z,3.37
2017-12-16T05:02:04.150Z,3.40
2017-12-16T05:03:57.144Z,3.37
2017-12-16T05:04:57.180Z,3.26
2017-12-16T05:06:50.161Z,3.21
2017-12-16T05:07:50.211Z,3.23
2017-12-16T05:09:43.218Z,3.25
2017-12-16T05:10:43.282Z,3.23
2017-12-16T05:12:36.251Z,3.13
2017-12-16T05:13:36.284Z,3.18
2017-12-16T05:15:29.257Z,3.16
2017-12-16T05:16:29.327Z,3.21
2017-12-16T05:18:22.320Z,3.10
2017-12-16T05:19:22.340Z,3.10
2017-12-16T05:21:15.326Z,3.10
2017-12-16T05:22:15.371Z,3.11
2017-12-16T05:24:08.368Z,3.11
2017-12-16T05:25:08.402Z,3.07
2017-12-16T05:27:01.402Z,3.10
2017-12-16T05:28:01.429Z,3.13
2017-12-16T05:29:54.424Z,3.11
2017-12-16T05:30:54.458Z,3.05
2017-12-16T05:32:47.483Z,3.04
2017-12-16T05:33:47.485Z,2.95
2017-12-16T05:35:40.461Z,2.95
2017-12-16T05:36:40.514Z,2.89
2017-12-16T05:38:33.507Z,3.05
2017-12-16T05:39:33.542Z,3.01
2017-12-16T05:41:26.526Z,3.11
2017-12-16T05:42:26.571Z,3.13
2017-12-16T05:44:19.566Z,3.19
2017-12-16T05:45:19.601Z,3.11
2017-12-16T05:47:12.584Z,3.11
2017-12-16T05:48:12.629Z,3.08
2017-12-16T05:50:05.625Z,3.10
2017-12-16T05:51:05.665Z,3.23
2017-12-16T05:52:58.651Z,3.23
2017-12-16T05:53:58.685Z,3.23
2017-12-16T05:55:51.670Z,3.26
2017-12-16T05:56:51.716Z,3.29
2017-12-16T05:58:44.723Z,3.29
2017-12-16T05:59:44.745Z,3.31
2017-12-16T06:01:37.764Z,3.13
2017-12-16T06:02:37.783Z,3.19
2017-12-16T06:04:30.779Z,3.19
2017-12-16T06:05:30.812Z,3.19
2017-12-16T06:07:23.786Z,3.16
2017-12-16T06:08:23.840Z,3.11
2017-12-16T06:10:16.832Z,3.05
2017-12-16T06:11:16.869Z,3.08
2017-12-16T06:13:09.868Z,3.23
2017-12-16T06:14:09.920Z,3.16
2017-12-16T06:16:02.879Z,3.23
2017-12-16T06:17:02.932Z,3.26
2017-12-16T06:18:55.932Z,3.32
2017-12-16T06:19:55.960Z,3.26
2017-12-16T06:21:48.934Z,3.37
2017-12-16T06:22:48.993Z,3.41
2017-12-16T06:24:41.993Z,3.29
2017-12-16T06:25:42.016Z,3.34
2017-12-16T06:27:34.999Z,3.31
2017-12-16T06:28:35.047Z,3.37
2017-12-16T06:30:28.046Z,3.34
2017-12-16T06:31:28.078Z,3.40
2017-12-16T06:33:21.080Z,3.36
2017-12-16T06:34:21.115Z,3.29
2017-12-16T06:36:14.096Z,3.21
2017-12-16T06:37:14.142Z,3.21
2017-12-16T06:39:07.145Z,3.18
2017-12-16T06:40:07.177Z,3.18
2017-12-16T06:42:00.148Z,3.18
2017-12-16T06:43:00.205Z,3.05
2017-12-16T06:44:53.201Z,3.07
2017-12-16T06:45:53.234Z,3.16
2017-12-16T06:47:46.216Z,3.05
2017-12-16T06:48:46.264Z,3.07
2017-12-16T06:50:39.273Z,3.05
2017-12-16T06:51:39.292Z,3.03
2017-12-16T06:53:32.290Z,3.14
2017-12-16T06:54:32.323Z,3.10
2017-12-16T06:56:25.316Z,3.13
2017-12-16T06:57:25.403Z,3.04
2017-12-16T06:59:18.354Z,3.04
2017-12-16T07:00:18.387Z,3.11
2017-12-16T07:02:11.392Z,3.19
2017-12-16T07:03:11.418Z,3.18
2017-12-16T07:05:04.412Z,3.22
2017-12-16T07:06:04.444Z,3.19
2017-12-16T07:07:57.428Z,3.03
2017-12-16T07:08:57.478Z,3.08
2017-12-16T07:10:50.531Z,3.13
2017-12-16T07:11:50.525Z,3.13
2017-12-16T07:13:43.506Z,3.05
2017-12-16T07:14:43.568Z,3.05
2017-12-16T07:16:36.534Z,3.03
2017-12-16T07:17:36.588Z,2.95
2017-12-16T07:19:29.646Z,2.90
2017-12-16T07:20:29.639Z,2.97
2017-12-16T07:22:22.643Z,2.97
2017-12-16T07:23:23.540Z,2.92
2017-12-16T07:25:17.363Z,2.89
2017-12-16T07:26:16.074Z,2.92
2017-12-16T07:28:08.943Z,2.92
2017-12-16T07:29:09.031Z,2.92
2017-12-16T07:31:01.971Z,2.87
2017-12-16T07:32:02.295Z,2.90
2017-12-16T07:33:55.016Z,2.93
2017-12-16T07:34:55.035Z,2.97
2017-12-16T07:36:48.032Z,2.97
2017-12-16T07:37:48.065Z,2.97
2017-12-16T07:39:41.452Z,3.03
2017-12-16T07:40:41.095Z,3.08
2017-12-16T07:42:34.520Z,3.05
2017-12-16T07:43:35.117Z,3.05
2017-12-16T07:45:27.848Z,3.08
2017-12-16T07:46:27.381Z,3.10
2017-12-16T07:48:20.353Z,3.11
2017-12-16T07:49:20.377Z,3.07
2017-12-16T07:51:13.357Z,3.10
2017-12-16T07:52:13.423Z,3.10
2017-12-16T07:54:06.484Z,3.05
2017-12-16T07:55:06.441Z,3.13
2017-12-16T07:56:59.440Z,3.10
2017-12-16T07:57:59.470Z,3.11
2017-12-16T07:59:52.474Z,3.14
2017-12-16T08:00:52.494Z,3.21
2017-12-16T08:02:45.630Z,3.05
2017-12-16T08:03:45.684Z,3.11
2017-12-16T08:05:38.845Z,3.14
2017-12-16T08:06:38.710Z,3.07
2017-12-16T08:08:31.687Z,3.11
2017-12-16T08:09:31.948Z,3.08
2017-12-16T08:11:24.780Z,3.07
2017-12-16T08:12:24.772Z,3.07
2017-12-16T08:14:17.975Z,3.04
2017-12-16T08:15:17.800Z,3.00
2017-12-16T08:17:10.788Z,2.90
2017-12-16T08:18:10.828Z,2.95
2017-12-16T08:20:03.820Z,2.93
2017-12-16T08:21:03.854Z,2.97
2017-12-16T08:22:56.831Z,3.00
2017-12-16T08:23:57.161Z,2.93
2017-12-16T08:25:49.909Z,2.93
2017-12-16T08:26:50.056Z,2.83
2017-12-16T08:28:42.945Z,2.98
2017-12-16T08:29:42.938Z,3.07
2017-12-16T08:31:35.929Z,3.03
2017-12-16T08:32:35.967Z,3.08
2017-12-16T08:34:28.969Z,3.16
2017-12-16T08:35:28.994Z,3.47
2017-12-16T08:37:21.980Z,3.65
2017-12-16T08:38:22.030Z,3.80
2017-12-16T08:40:15.027Z,4.06
2017-12-16T08:41:15.059Z,4.12
2017-12-16T08:43:08.041Z,4.50
2017-12-16T08:44:08.097Z,4.62
2017-12-16T08:46:01.090Z,4.78
2017-12-16T08:47:01.125Z,4.70
2017-12-16T08:48:54.128Z,4.82
2017-12-16T08:49:54.180Z,4.60
2017-12-16T08:51:47.227Z,4.50
2017-12-16T08:52:47.270Z,4.31
2017-12-16T08:54:40.431Z,4.16
2017-12-16T08:55:40.214Z,4.10
2017-12-16T08:57:33.197Z,4.06
2017-12-16T08:58:33.256Z,4.06
2017-12-16T09:00:26.244Z,4.16
2017-12-16T09:01:26.282Z,4.05
2017-12-16T09:03:19.263Z,4.04
2017-12-16T09:04:19.309Z,4.05
2017-12-16T09:06:12.306Z,4.08
2017-12-16T09:07:12.350Z,4.14
2017-12-16T09:09:05.328Z,4.06
2017-12-16T09:10:05.376Z,4.06
2017-12-16T09:11:58.377Z,4.12
2017-12-16T09:12:58.404Z,4.12
2017-12-16T09:14:51.406Z,4.02
2017-12-16T09:15:51.432Z,4.04
2017-12-16T09:17:44.421Z,4.05
2017-12-16T09:18:44.463Z,4.13
2017-12-16T09:20:37.458Z,4.05
2017-12-16T09:21:37.492Z,4.06
2017-12-16T09:23:30.476Z,4.10
2017-12-16T09:24:30.562Z,4.02
2017-12-16T09:26:23.530Z,4.06
2017-12-16T09:27:23.554Z,4.14
2017-12-16T09:29:16.528Z,4.17
2017-12-16T09:30:16.593Z,4.34
2017-12-16T09:32:09.578Z,4.42
2017-12-16T09:33:09.612Z,4.37
2017-12-16T09:35:02.631Z,4.37
2017-12-16T09:36:02.643Z,4.37
2017-12-16T09:37:55.617Z,4.28
2017-12-16T09:38:55.708Z,4.10
2017-12-16T09:40:48.719Z,4.12
2017-12-16T09:41:48.703Z,4.12
2017-12-16T09:43:41.683Z,4.17
2017-12-16T09:44:41.732Z,4.08
2017-12-16T09:46:34.731Z,4.14
2017-12-16T09:47:34.768Z,4.13
2017-12-16T09:49:27.746Z,4.30
2017-12-16T09:50:27.790Z,4.44
2017-12-16T09:52:20.790Z,4.55
2017-12-16T09:53:20.827Z,4.66
2017-12-16T09:55:13.848Z,4.73
2017-12-16T09:56:13.883Z,4.87
2017-12-16T09:58:06.845Z,4.92
2017-12-16T09:59:06.901Z,4.92
2017-12-16T10:00:59.899Z,4.86
2017-12-16T10:01:59.931Z,4.74
2017-12-16T10:03:52.904Z,4.74
2017-12-16T10:04:52.958Z,4.63
2017-12-16T10:06:45.955Z,4.60
2017-12-16T10:07:45.987Z,4.66
2017-12-16T10:09:38.971Z,4.63
2017-12-16T10:10:39.021Z,4.77
2017-12-16T10:12:32.012Z,4.75
2017-12-16T10:13:32.050Z,4.67
2017-12-16T10:15:25.116Z,4.86
2017-12-16T10:16:25.095Z,4.86
2017-12-16T10:18:18.056Z,4.89
2017-12-16T10:19:18.109Z,4.92
2017-12-16T10:21:11.104Z,4.96
2017-12-16T10:22:11.138Z,4.87
2017-12-16T10:24:04.116Z,4.92
2017-12-16T10:25:04.168Z,4.90
2017-12-16T10:26:57.173Z,4.92
2017-12-16T10:27:57.200Z,4.94
2017-12-16T10:29:50.177Z,5.08
2017-12-16T10:30:50.231Z,5.11
2017-12-16T10:32:43.234Z,5.26
2017-12-16T10:33:43.264Z,5.41
2017-12-16T10:35:36.255Z,5.56
2017-12-16T10:36:36.290Z,5.64
2017-12-16T10:38:29.273Z,5.79
2017-12-16T10:39:29.324Z,5.83
2017-12-16T10:41:22.323Z,6.05
2017-12-16T10:42:22.356Z,6.17
2017-12-16T10:44:15.332Z,6.30
2017-12-16T10:45:15.391Z,6.30
2017-12-16T10:47:08.382Z,6.27
2017-12-16T10:48:08.469Z,6.22
2017-12-16T10:50:01.437Z,6.12
2017-12-16T10:51:01.451Z,6.08
2017-12-16T10:52:54.607Z,6.11
2017-12-16T10:53:54.488Z,6.11
2017-12-16T10:55:47.478Z,6.20
2017-12-16T10:56:47.516Z,6.11
2017-12-16T10:58:40.490Z,6.02
2017-12-16T10:59:40.549Z,5.91
2017-12-16T11:01:33.550Z,5.76
2017-12-16T11:02:33.589Z,5.89
2017-12-16T11:04:26.565Z,5.91
2017-12-16T11:05:26.621Z,5.90
2017-12-16T11:07:20.130Z,5.87
2017-12-16T11:08:20.162Z,5.84
2017-12-16T11:10:13.687Z,5.90
2017-12-16T11:11:13.705Z,5.89
2017-12-16T11:13:06.708Z,5.69
2017-12-16T11:14:06.743Z,5.65
2017-12-16T11:16:00.272Z,5.47
2017-12-16T11:17:00.283Z,5.64
2017-12-16T11:18:53.265Z,5.51
2017-12-16T11:19:53.325Z,5.61
2017-12-16T11:21:46.312Z,5.64
2017-12-16T11:22:46.346Z,5.64
2017-12-16T11:24:39.407Z,5.72
2017-12-16T11:25:39.385Z,5.76
2017-12-16T11:27:32.380Z,5.75
2017-12-16T11:28:32.416Z,5.83
2017-12-16T11:30:25.399Z,5.94
2017-12-16T11:31:25.448Z,5.98
2017-12-16T11:33:18.444Z,5.94
2017-12-16T11:34:18.497Z,6.01
2017-12-16T11:36:11.990Z,6.04
2017-12-16T11:37:12.262Z,6.07
2017-12-16T11:39:05.001Z,6.07
2017-12-16T11:40:05.144Z,6.19
2017-12-16T11:41:58.721Z,6.19
2017-12-16T11:42:58.588Z,6.27
2017-12-16T11:44:51.623Z,6.30
2017-12-16T11:45:51.622Z,6.36
2017-12-16T11:47:44.628Z,6.39
2017-12-16T11:48:44.696Z,6.44
2017-12-16T11:50:37.639Z,6.62
2017-12-16T11:51:37.696Z,6.66
2017-12-16T11:53:30.707Z,6.70
2017-12-16T11:54:30.740Z,6.54
2017-12-16T11:56:23.738Z,6.56
2017-12-16T11:57:23.772Z,6.59
2017-12-16T11:59:16.831Z,6.56
2017-12-16T12:00:16.811Z,6.49
2017-12-16T12:02:09.877Z,6.46
2017-12-16T12:03:09.852Z,6.31
2017-12-16T12:05:02.857Z,6.27
2017-12-16T12:06:02.878Z,6.22
2017-12-16T12:07:55.886Z,6.27
2017-12-16T12:08:55.920Z,6.30
2017-12-16T12:10:48.912Z,6.57
2017-12-16T12:11:48.967Z,6.56
2017-12-16T12:13:41.973Z,6.60
2017-12-16T12:14:41.999Z,6.54
2017-12-16T12:16:34.999Z,6.45
2017-12-16T12:17:35.315Z,6.45
2017-12-16T12:19:28.010Z,6.41
2017-12-16T12:20:28.067Z,6.52
2017-12-16T12:22:21.071Z,6.49
2017-12-16T12:23:21.107Z,6.48
2017-12-16T12:25:14.110Z,6.42
2017-12-16T12:26:14.138Z,6.46
2017-12-16T12:28:07.155Z,6.36
2017-12-16T12:29:07.172Z,6.44
2017-12-16T12:31:00.161Z,6.48
2017-12-16T12:32:00.220Z,6.59
2017-12-16T12:33:53.208Z,6.72
2017-12-16T12:34:53.242Z,6.81
2017-12-16T12:36:46.238Z,6.81
2017-12-16T12:37:46.274Z,6.74
2017-12-16T12:39:39.269Z,6.57
2017-12-16T12:40:39.308Z,6.44
2017-12-16T12:42:32.332Z,6.49
2017-12-16T12:43:32.342Z,6.46
2017-12-16T12:45:25.341Z,6.48
2017-12-16T12:46:25.377Z,6.36
2017-12-16T12:48:18.375Z,6.36
2017-12-16T12:49:18.413Z,6.35
2017-12-16T12:51:11.390Z,6.31
2017-12-16T12:52:11.445Z,6.27
2017-12-16T12:54:04.482Z,6.27
2017-12-16T12:55:04.476Z,6.28
2017-12-16T12:56:57.482Z,6.31
2017-12-16T12:57:57.516Z,6.30
2017-12-16T12:59:50.494Z,6.26
2017-12-16T13:00:50.551Z,6.24
2017-12-16T13:02:43.549Z,6.27
2017-12-16T13:03:43.584Z,6.22
2017-12-16T13:05:36.567Z,6.17
2017-12-16T13:06:36.620Z,6.14
2017-12-16T13:08:29.630Z,6.14
2017-12-16T13:09:29.652Z,6.14
2017-12-16T13:11:22.668Z,6.16
2017-12-16T13:12:22.685Z,6.19
2017-12-16T13:14:15.660Z,6.11
2017-12-16T13:15:15.717Z,6.28
2017-12-16T13:17:08.715Z,6.27
2017-12-16T13:18:08.761Z,6.30
2017-12-16T13:20:01.726Z,6.28
2017-12-16T13:21:01.786Z,6.27
2017-12-16T13:22:54.802Z,6.24
2017-12-16T13:23:54.838Z,6.30
2017-12-16T13:25:47.820Z,6.28
2017-12-16T13:26:47.875Z,6.28
2017-12-16T13:28:40.872Z,6.22
2017-12-16T13:29:40.923Z,6.30
2017-12-16T13:31:33.905Z,6.28
2017-12-16T13:32:33.962Z,6.28
2017-12-16T13:34:26.918Z,6.27
2017-12-16T13:35:27.009Z,6.20
2017-12-16T13:37:19.969Z,6.27
2017-12-16T13:38:20.008Z,6.28
2017-12-16T13:40:13.196Z,6.31
2017-12-16T13:41:13.038Z,6.20
2017-12-16T13:43:06.165Z,6.22
2017-12-16T13:44:06.086Z,6.27
2017-12-16T13:45:59.059Z,6.27
2017-12-16T13:46:59.116Z,6.26
2017-12-16T13:48:52.110Z,6.28
2017-12-16T13:49:52.155Z,6.35
2017-12-16T13:51:45.147Z,6.24
2017-12-16T13:52:45.183Z,6.20
2017-12-16T13:54:38.166Z,6.24
2017-12-16T13:55:38.216Z,6.14
2017-12-16T13:57:31.212Z,6.19
2017-12-16T13:58:31.248Z,6.09
2017-12-16T14:00:24.224Z,6.04
2017-12-16T14:01:24.279Z,6.12
2017-12-16T14:03:17.282Z,6.04
2017-12-16T14:04:17.319Z,6.12
2017-12-16T14:06:10.301Z,6.11
2017-12-16T14:07:10.357Z,6.09
2017-12-16T14:09:03.358Z,6.07
2017-12-16T14:10:03.390Z,6.09
2017-12-16T14:11:56.385Z,6.07
2017-12-16T14:12:56.422Z,6.11
2017-12-16T14:14:49.407Z,6.04
2017-12-16T14:15:49.462Z,6.11
2017-12-16T14:17:42.460Z,6.12
2017-12-16T14:18:42.501Z,6.08
2017-12-16T14:20:35.475Z,6.09
2017-12-16T14:21:35.528Z,6.07
2017-12-16T14:23:28.524Z,6.08
2017-12-16T14:24:28.561Z,6.04
2017-12-16T14:26:21.536Z,6.05
2017-12-16T14:27:21.592Z,6.08
2017-12-16T14:29:14.598Z,6.11
2017-12-16T14:30:14.623Z,6.08
2017-12-16T14:32:07.619Z,6.11
2017-12-16T14:33:07.655Z,6.04
2017-12-16T14:35:00.631Z,6.11
2017-12-16T14:36:00.689Z,6.04
2017-12-16T14:37:53.682Z,6.11
2017-12-16T14:38:53.719Z,6.14
2017-12-16T14:40:46.701Z,6.08
2017-12-16T14:41:46.754Z,5.94
2017-12-16T14:43:39.754Z,6.02
2017-12-16T14:44:39.788Z,5.87
2017-12-16T14:46:32.764Z,5.93
2017-12-16T14:47:32.821Z,5.89
2017-12-16T14:49:25.819Z,5.93
2017-12-16T14:50:25.853Z,5.98
2017-12-16T14:52:18.849Z,5.98
2017-12-16T14:53:18.887Z,5.90
2017-12-16T14:55:11.874Z,5.86
2017-12-16T14:56:11.915Z,5.89
2017-12-16T14:58:04.935Z,5.87
2017-12-16T14:59:04.948Z,5.90
2017-12-16T15:00:57.939Z,5.87
2017-12-16T15:01:57.980Z,5.89
2017-12-16T15:03:51.032Z,5.89
2017-12-16T15:04:51.012Z,5.87
2017-12-16T15:06:44.000Z,5.82
2017-12-16T15:07:44.045Z,5.84
2017-12-16T15:09:37.043Z,5.73
2017-12-16T15:10:37.078Z,5.76
2017-12-16T15:12:30.073Z,5.79
2017-12-16T15:13:30.123Z,5.82
2017-12-16T15:15:23.111Z,5.86
2017-12-16T15:16:23.147Z,5.76
2017-12-16T15:18:16.144Z,5.84
2017-12-16T15:19:16.181Z,5.73
2017-12-16T15:21:09.181Z,5.76
2017-12-16T15:22:09.238Z,5.80
2017-12-16T15:24:02.240Z,5.75
2017-12-16T15:25:02.274Z,5.80
2017-12-16T15:26:55.256Z,5.76
2017-12-16T15:27:55.303Z,5.71
2017-12-16T15:29:48.338Z,5.71
2017-12-16T15:30:48.336Z,5.73
2017-12-16T15:32:41.385Z,5.75
2017-12-16T15:33:41.374Z,5.69
2017-12-16T15:35:34.349Z,5.75
2017-12-16T15:36:34.407Z,5.79
2017-12-16T15:38:27.405Z,5.75
2017-12-16T15:39:27.438Z,5.72
2017-12-16T15:41:20.416Z,5.59
2017-12-16T15:42:20.470Z,5.73
2017-12-16T15:44:13.466Z,5.64
2017-12-16T15:45:13.501Z,5.62
2017-12-16T15:47:06.491Z,5.59
2017-12-16T15:48:06.538Z,5.65
2017-12-16T15:49:59.531Z,5.65
2017-12-16T15:50:59.568Z,5.54
2017-12-16T15:52:52.569Z,5.61
2017-12-16T15:53:52.597Z,5.62
2017-12-16T15:55:45.576Z,5.68
2017-12-16T15:56:45.642Z,5.65
2017-12-16T15:58:38.631Z,5.64
2017-12-16T15:59:38.668Z,5.59
2017-12-16T16:01:31.651Z,5.59
2017-12-16T16:02:31.701Z,5.56
2017-12-16T16:04:24.695Z,5.48
2017-12-16T16:05:24.731Z,5.43
2017-12-16T16:07:17.713Z,5.43
2017-12-16T16:08:17.763Z,5.43
2017-12-16T16:10:10.763Z,5.46
2017-12-16T16:11:10.795Z,5.41
2017-12-16T16:13:03.869Z,5.48
2017-12-16T16:14:03.832Z,5.43
2017-12-16T16:15:56.840Z,5.46
2017-12-16T16:16:56.867Z,5.41
2017-12-16T16:18:49.866Z,5.51
2017-12-16T16:19:49.902Z,5.48
2017-12-16T16:21:42.887Z,5.41
2017-12-16T16:22:42.936Z,5.43
2017-12-16T16:24:35.933Z,5.39
2017-12-16T16:25:35.967Z,5.41
2017-12-16T16:27:28.952Z,5.46
2017-12-16T16:28:28.998Z,5.28
2017-12-16T16:30:21.993Z,5.33
2017-12-16T16:31:22.032Z,5.28
2017-12-16T16:33:15.032Z,5.08
2017-12-16T16:34:15.062Z,5.10
2017-12-16T16:36:08.050Z,5.05
2017-12-16T16:37:08.108Z,5.11
2017-12-16T16:39:01.110Z,4.99
2017-12-16T16:40:01.151Z,5.02
2017-12-16T16:41:54.126Z,5.00
2017-12-16T16:42:54.174Z,4.99
2017-12-16T16:44:47.184Z,4.93
2017-12-16T16:45:47.200Z,4.96
2017-12-16T16:47:40.183Z,5.02
2017-12-16T16:48:40.234Z,4.97
2017-12-16T16:50:33.247Z,4.97
2017-12-16T16:51:33.267Z,4.99
2017-12-16T16:53:26.265Z,4.94
2017-12-16T16:54:26.299Z,4.97
2017-12-16T16:56:19.299Z,4.92
2017-12-16T16:57:20.309Z,4.87
2017-12-16T16:59:12.332Z,4.87
2017-12-16T17:00:12.363Z,4.94
2017-12-16T17:02:05.353Z,4.87
2017-12-16T17:03:05.402Z,4.87
2017-12-16T17:04:58.411Z,4.86
2017-12-16T17:05:58.434Z,4.87
2017-12-16T17:07:51.449Z,4.92
2017-12-16T17:08:51.463Z,4.86
2017-12-16T17:10:44.459Z,4.90
2017-12-16T17:11:44.495Z,4.90
2017-12-16T17:13:37.501Z,4.96
2017-12-16T17:14:37.531Z,4.87
2017-12-16T17:16:30.524Z,4.93
2017-12-16T17:17:30.561Z,4.90
2017-12-16T17:19:23.556Z,4.90
2017-12-16T17:20:23.594Z,4.92
2017-12-16T17:22:16.585Z,4.90
2017-12-16T17:23:16.634Z,4.87
2017-12-16T17:25:09.649Z,4.89
2017-12-16T17:26:09.687Z,4.92
2017-12-16T17:28:02.686Z,4.87
2017-12-16T17:29:02.716Z,4.87
2017-12-16T17:30:55.690Z,4.89
2017-12-16T17:31:55.746Z,4.94
2017-12-16T17:33:48.741Z,4.99
2017-12-16T17:34:48.788Z,4.86
2017-12-16T17:36:42.857Z,4.90
2017-12-16T17:37:42.376Z,4.97
2017-12-16T17:39:37.142Z,4.84
2017-12-16T17:40:36.480Z,4.94
2017-12-16T17:42:29.377Z,4.86
2017-12-16T17:43:29.433Z,4.71
2017-12-16T17:45:22.426Z,4.80
2017-12-16T17:46:22.462Z,4.89
2017-12-16T17:48:15.517Z,4.77
2017-12-16T17:49:15.554Z,4.70
2017-12-16T17:51:08.551Z,4.80
2017-12-16T17:52:08.609Z,4.80
2017-12-16T17:54:01.588Z,4.75
2017-12-16T17:55:01.623Z,4.63
2017-12-16T17:56:54.596Z,4.71
2017-12-16T17:57:54.651Z,4.80
2017-12-16T17:59:47.655Z,4.77
2017-12-16T18:00:47.705Z,4.78
2017-12-16T18:02:40.664Z,4.74
2017-12-16T18:03:40.716Z,4.59
2017-12-16T18:05:33.713Z,4.66
2017-12-16T18:06:33.748Z,4.56
2017-12-16T18:08:26.743Z,4.62
2017-12-16T18:09:26.779Z,4.59
2017-12-16T18:11:19.784Z,4.48
2017-12-16T18:12:20.125Z,4.45
2017-12-16T18:14:12.811Z,4.42
2017-12-16T18:15:12.848Z,4.42
2017-12-16T18:17:05.823Z,4.45
2017-12-16T18:18:05.879Z,4.48
2017-12-16T18:19:58.871Z,4.44
2017-12-16T18:20:58.912Z,4.34
2017-12-16T18:22:51.888Z,4.34
2017-12-16T18:23:51.939Z,4.38
2017-12-16T18:25:44.935Z,4.31
2017-12-16T18:26:44.971Z,4.22
2017-12-16T18:28:37.965Z,4.14
2017-12-16T18:29:38.000Z,4.17
2017-12-16T18:31:30.981Z,4.06
2017-12-16T18:32:31.031Z,4.20
2017-12-16T18:34:24.029Z,4.01
2017-12-16T18:35:24.076Z,4.04
2017-12-16T18:37:17.044Z,4.06
2017-12-16T18:38:17.097Z,4.02
2017-12-16T18:40:10.094Z,4.02
2017-12-16T18:41:10.131Z,3.95
2017-12-16T18:43:03.651Z,3.98
2017-12-16T18:44:03.666Z,3.91
2017-12-16T18:45:56.684Z,3.86
2017-12-16T18:46:56.727Z,3.86
2017-12-16T18:48:49.702Z,3.92
2017-12-16T18:49:49.747Z,3.88
2017-12-16T18:51:42.710Z,3.81
2017-12-16T18:52:42.765Z,3.76
2017-12-16T18:54:36.270Z,3.84
2017-12-16T18:55:36.304Z,3.80
2017-12-16T18:57:29.360Z,3.74
2017-12-16T18:58:29.334Z,3.69
2017-12-16T19:00:22.847Z,3.80
2017-12-16T19:01:22.876Z,3.80
2017-12-16T19:03:15.850Z,3.74
2017-12-16T19:04:15.912Z,3.78
2017-12-16T19:06:08.912Z,3.74
2017-12-16T19:07:08.949Z,3.76
2017-12-16T19:09:02.002Z,3.84
2017-12-16T19:10:02.001Z,3.81
2017-12-16T19:11:54.960Z,3.91